createdAt,value
2022-08-14T00:03:41.375Z,2.90
2022-08-14T00:22:22.050Z,3.00
2022-08-14T00:40:59.523Z,3.70
2022-08-14T00:59:38.712Z,4.00
2022-08-14T01:18:17.959Z,4.80
2022-08-14T01:36:56.626Z,3.00
2022-08-14T01:55:34.949Z,4.00
2022-08-14T02:14:14.440Z,3.00
2022-08-14T02:51:32.163Z,5.70
2022-08-14T03:10:27.349Z,5.90
2022-08-14T03:28:48.105Z,4.80
2022-08-14T03:47:46.723Z,3.50
2022-08-14T04:24:52.936Z,4.20
2022-08-14T04:43:29.889Z,4.70
2022-08-14T05:02:06.750Z,5.60
2022-08-14T05:21:05.165Z,4.00
2022-08-14T05:39:28.477Z,3.10
2022-08-14T05:58:08.882Z,4.30
2022-08-14T06:16:49.270Z,3.80
2022-08-14T06:35:32.802Z,3.70
2022-08-14T07:31:29.237Z,3.00
2022-08-14T07:50:13.278Z,2.20
2022-08-14T08:08:58.943Z,2.20
2022-08-14T08:27:34.521Z,2.10
2022-08-14T14:42:35.273Z,1.00
2022-08-14T15:01:10.449Z,0.80
2022-08-14T15:19:53.645Z,1.00
2022-08-14T15:38:29.429Z,1.10
2022-08-14T16:34:43.845Z,1.00
2022-08-14T16:53:00.750Z,0.50
2022-08-14T17:30:31.773Z,1.20
2022-08-14T17:49:10.226Z,1.20
2022-08-14T18:07:17.004Z,1.10
2022-08-14T18:25:48.285Z,1.00
2022-08-14T18:44:24.770Z,1.20
2022-08-14T19:03:00.740Z,1.60
2022-08-14T19:21:38.984Z,1.90
2022-08-14T19:40:19.814Z,1.40
2022-08-14T19:58:54.271Z,1.60
2022-08-14T20:17:40.107Z,2.40
2022-08-14T20:36:09.497Z,1.70
2022-08-14T20:54:50.053Z,1.90
2022-08-14T21:13:27.076Z,1.50
2022-08-14T22:27:57.913Z,2.10
2022-08-14T22:46:36.322Z,2.20
2022-08-14T23:23:54.839Z,2.10
2022-08-14T23:42:39.935Z,2.60
